createdAt,value
2023-03-11T00:00:19.946Z,100707.41
2023-03-11T00:02:48.714Z,100713.56
2023-03-11T00:05:18.265Z,100716.41
2023-03-11T00:07:46.100Z,100705.44
2023-03-11T00:10:17.792Z,100706.13
2023-03-11T00:12:45.569Z,100707.97
2023-03-11T00:15:14.702Z,100703.78
2023-03-11T00:17:42.889Z,100715.44
2023-03-11T00:20:20.293Z,100719.94
2023-03-11T00:22:48.498Z,100713.88
2023-03-11T00:25:19.093Z,100714.13
2023-03-11T00:27:47.051Z,100739.66
2023-03-11T00:30:16.257Z,100725.00
2023-03-11T00:32:44.668Z,100750.28
2023-03-11T00:35:14.408Z,100757.34
2023-03-11T00:37:42.319Z,100758.38
2023-03-11T00:40:14.142Z,100760.13
2023-03-11T00:42:43.314Z,100755.00
2023-03-11T00:45:11.753Z,100764.06
2023-03-11T00:47:39.546Z,100765.09
2023-03-11T00:50:09.662Z,100770.16
2023-03-11T00:52:38.808Z,100766.41
2023-03-11T00:55:07.104Z,100770.63
2023-03-11T00:57:34.886Z,100759.19
2023-03-11T01:00:04.550Z,100771.44
2023-03-11T01:02:32.342Z,100770.63
2023-03-11T01:05:00.087Z,100774.09
2023-03-11T01:07:27.819Z,100771.56
2023-03-11T01:09:55.604Z,100783.16
2023-03-11T01:12:23.335Z,100777.81
2023-03-11T01:14:51.164Z,100768.28
2023-03-11T01:17:22.119Z,100779.59
2023-03-11T01:19:49.928Z,100782.25
2023-03-11T01:22:18.134Z,100781.50
2023-03-11T01:24:46.042Z,100780.72
2023-03-11T01:27:13.901Z,100787.88
2023-03-11T01:29:41.720Z,100779.16
2023-03-11T01:32:09.521Z,100785.53
2023-03-11T01:34:38.653Z,100787.41
2023-03-11T01:37:06.449Z,100789.38
2023-03-11T01:39:34.226Z,100793.84
2023-03-11T01:42:01.997Z,100790.31
2023-03-11T01:44:29.728Z,100788.75
2023-03-11T01:47:35.222Z,100789.78
2023-03-11T01:50:06.628Z,100791.47
2023-03-11T01:52:34.707Z,100799.59
2023-03-11T01:55:02.621Z,100797.16
2023-03-11T01:57:31.064Z,100801.63
2023-03-11T02:00:01.617Z,100798.97
2023-03-11T02:02:35.482Z,100800.09
2023-03-11T02:05:05.697Z,100805.47
2023-03-11T02:07:34.038Z,100809.19
2023-03-11T02:10:02.171Z,100805.56
2023-03-11T02:12:35.155Z,100802.09
2023-03-11T02:15:03.863Z,100800.22
2023-03-11T02:17:31.800Z,100809.25
2023-03-11T02:20:13.410Z,100811.09
2023-03-11T02:22:42.766Z,100813.66
2023-03-11T02:25:19.634Z,100802.97
2023-03-11T02:27:52.117Z,100808.47
2023-03-11T02:30:21.700Z,100806.72
2023-03-11T02:32:50.571Z,100797.06
2023-03-11T02:35:19.009Z,100806.06
2023-03-11T02:37:48.070Z,100807.00
2023-03-11T02:40:36.331Z,100803.59
2023-03-11T02:43:09.246Z,100808.78
2023-03-11T02:45:39.969Z,100799.91
2023-03-11T02:48:11.190Z,100802.59
2023-03-11T02:50:39.526Z,100804.47
2023-03-11T02:53:07.744Z,100813.41
2023-03-11T02:55:35.606Z,100809.09
2023-03-11T02:58:04.925Z,100807.34
2023-03-11T03:00:33.912Z,100802.97
2023-03-11T03:03:01.837Z,100808.47
2023-03-11T03:05:29.747Z,100816.59
2023-03-11T03:07:57.664Z,100822.97
2023-03-11T03:10:25.751Z,100836.31
2023-03-11T03:12:53.570Z,100830.34
2023-03-11T03:15:22.716Z,100838.53
2023-03-11T03:17:51.595Z,100834.34
2023-03-11T03:20:20.772Z,100842.34
2023-03-11T03:22:48.695Z,100846.97
2023-03-11T03:25:16.649Z,100847.13
2023-03-11T03:27:44.513Z,100850.75
2023-03-11T03:30:13.474Z,100856.09
2023-03-11T03:32:42.796Z,100850.88
2023-03-11T03:35:11.222Z,100860.69
2023-03-11T03:37:39.205Z,100866.09
2023-03-11T03:40:10.011Z,100870.66
2023-03-11T03:42:39.387Z,100869.78
2023-03-11T03:45:09.496Z,100874.34
2023-03-11T03:47:37.607Z,100866.47
2023-03-11T03:50:09.145Z,100874.56
2023-03-11T03:52:37.338Z,100873.81
2023-03-11T03:55:06.719Z,100881.84
2023-03-11T03:57:34.796Z,100881.03
2023-03-11T04:00:03.802Z,100890.94
2023-03-11T04:02:32.689Z,100892.63
2023-03-11T04:05:00.410Z,100891.91
2023-03-11T04:07:29.531Z,100890.94
2023-03-11T04:09:57.372Z,100891.91
2023-03-11T04:12:25.313Z,100890.22
2023-03-11T04:14:53.571Z,100892.00
2023-03-11T04:17:21.353Z,100890.34
2023-03-11T04:19:49.241Z,100890.41
2023-03-11T04:22:16.987Z,100886.09
2023-03-11T04:24:46.347Z,100886.09
2023-03-11T04:27:16.425Z,100885.28
2023-03-11T04:29:44.318Z,100879.31
2023-03-11T04:32:12.125Z,100896.97
2023-03-11T04:34:40.733Z,100888.16
2023-03-11T04:37:08.570Z,100890.78
2023-03-11T04:39:36.278Z,100888.16
2023-03-11T04:42:05.725Z,100888.53
2023-03-11T04:44:36.012Z,100887.66
2023-03-11T04:47:03.693Z,100899.19
2023-03-11T04:49:31.438Z,100903.72
2023-03-11T04:51:59.197Z,100902.94
2023-03-11T04:54:27.012Z,100904.81
2023-03-11T04:56:55.118Z,100894.50
2023-03-11T04:59:24.276Z,100916.41
2023-03-11T05:01:52.098Z,100918.22
2023-03-11T05:04:19.866Z,100913.00
2023-03-11T05:06:50.859Z,100907.81
2023-03-11T05:09:18.726Z,100918.53
2023-03-11T05:11:46.485Z,100918.75
2023-03-11T05:14:14.227Z,100916.28
2023-03-11T05:16:43.383Z,100918.16
2023-03-11T05:19:25.009Z,100918.06
2023-03-11T05:21:52.795Z,100910.31
2023-03-11T05:24:21.004Z,100915.69
2023-03-11T05:26:48.817Z,100922.03
2023-03-11T05:29:16.583Z,100912.50
2023-03-11T05:31:45.691Z,100924.03
2023-03-11T05:34:13.635Z,100923.41
2023-03-11T05:36:41.440Z,100922.56
2023-03-11T05:39:09.240Z,100925.38
2023-03-11T05:41:37.146Z,100939.41
2023-03-11T05:44:05.492Z,100938.63
2023-03-11T05:46:33.347Z,100938.69
2023-03-11T05:49:02.481Z,100932.66
2023-03-11T05:51:30.627Z,100941.59
2023-03-11T05:53:58.758Z,100940.75
2023-03-11T05:56:26.523Z,100948.88
2023-03-11T05:58:54.249Z,100957.72
2023-03-11T06:01:22.006Z,100962.25
2023-03-11T06:03:49.841Z,100954.41
2023-03-11T06:06:19.057Z,100958.72
2023-03-11T06:08:49.878Z,100959.66
2023-03-11T06:11:18.411Z,100961.31
2023-03-11T06:13:46.163Z,100965.84
2023-03-11T06:16:14.282Z,100963.50
2023-03-11T06:18:42.280Z,100974.84
2023-03-11T06:21:17.084Z,100972.16
2023-03-11T06:23:46.586Z,100981.97
2023-03-11T06:26:16.744Z,100973.25
2023-03-11T06:28:45.435Z,100981.97
2023-03-11T06:31:16.987Z,100980.97
2023-03-11T06:33:44.998Z,100988.13
2023-03-11T06:36:15.136Z,100992.50
2023-03-11T06:38:43.228Z,100989.91
2023-03-11T06:41:12.385Z,100996.91
2023-03-11T06:43:40.319Z,101010.19
2023-03-11T06:46:12.817Z,100995.97
2023-03-11T06:48:40.835Z,101006.63
2023-03-11T06:51:08.849Z,101011.84
2023-03-11T06:53:36.727Z,101015.38
2023-03-11T06:56:07.442Z,101013.63
2023-03-11T06:58:38.186Z,101013.56
2023-03-11T07:01:08.410Z,101023.25
2023-03-11T07:03:39.065Z,101025.84
2023-03-11T07:06:07.481Z,101012.78
2023-03-11T07:08:35.223Z,101016.94
2023-03-11T07:11:04.963Z,101029.19
2023-03-11T07:13:33.255Z,101028.19
2023-03-11T07:16:03.713Z,101033.41
2023-03-11T07:18:31.539Z,101033.25
2023-03-11T07:20:59.363Z,101041.06
2023-03-11T07:23:27.215Z,101040.91
2023-03-11T07:25:55.577Z,101046.09
2023-03-11T07:28:23.507Z,101048.50
2023-03-11T07:30:51.382Z,101047.50
2023-03-11T07:33:21.048Z,101054.31
2023-03-11T07:35:49.425Z,101062.84
2023-03-11T07:38:17.987Z,101065.25
2023-03-11T07:40:45.878Z,101060.47
2023-03-11T07:43:13.661Z,101058.34
2023-03-11T07:45:41.497Z,101063.19
2023-03-11T07:48:09.215Z,101059.25
2023-03-11T07:50:38.370Z,101068.47
2023-03-11T07:53:06.092Z,101072.34
2023-03-11T07:55:34.494Z,101070.00
2023-03-11T07:58:02.434Z,101072.94
2023-03-11T08:00:30.286Z,101076.72
2023-03-11T08:02:58.022Z,101084.25
2023-03-11T08:05:25.915Z,101076.66
2023-03-11T08:07:55.026Z,101077.03
2023-03-11T08:10:22.758Z,101086.31
2023-03-11T08:12:50.500Z,101088.47
2023-03-11T08:15:18.230Z,101079.94
2023-03-11T08:17:45.985Z,101090.03
2023-03-11T08:20:14.307Z,101093.59
2023-03-11T08:22:55.607Z,101100.50
2023-03-11T08:25:26.940Z,101096.97
2023-03-11T08:27:54.657Z,101097.72
2023-03-11T08:30:22.925Z,101109.44
2023-03-11T08:32:51.075Z,101109.47
2023-03-11T08:35:19.011Z,101095.69
2023-03-11T08:37:46.815Z,101097.44
2023-03-11T08:40:14.934Z,101097.34
2023-03-11T08:42:44.031Z,101104.38
2023-03-11T08:45:12.783Z,101100.47
2023-03-11T08:47:41.282Z,101115.59
2023-03-11T08:50:13.403Z,101106.13
2023-03-11T08:52:41.143Z,101110.59
2023-03-11T08:55:11.528Z,101123.28
2023-03-11T08:57:39.281Z,101126.22
2023-03-11T09:00:13.000Z,101119.53
2023-03-11T09:02:41.650Z,101127.97
2023-03-11T09:05:10.277Z,101121.66
2023-03-11T09:07:38.044Z,101125.72
2023-03-11T09:10:06.828Z,101132.53
2023-03-11T09:12:34.638Z,101121.31
2023-03-11T09:15:02.387Z,101137.25
2023-03-11T09:17:31.544Z,101127.72
2023-03-11T09:19:59.553Z,101132.81
2023-03-11T09:22:27.338Z,101149.34
2023-03-11T09:24:55.077Z,101143.97
2023-03-11T09:27:22.843Z,101136.88
2023-03-11T09:29:50.819Z,101136.88
2023-03-11T09:32:18.633Z,101131.47
2023-03-11T09:34:47.799Z,101129.63
2023-03-11T09:37:15.800Z,101133.00
2023-03-11T09:39:44.695Z,101127.63
2023-03-11T09:42:21.362Z,101133.00
2023-03-11T09:44:59.931Z,101134.72
2023-03-11T09:47:45.148Z,101137.91
2023-03-11T09:50:29.538Z,101146.16
2023-03-11T09:53:10.180Z,101147.19
2023-03-11T09:55:43.397Z,101142.09
2023-03-11T09:58:18.898Z,101135.22
2023-03-11T10:00:47.338Z,101142.13
2023-03-11T10:03:30.466Z,101135.97
2023-03-11T10:06:07.372Z,101146.00
2023-03-11T10:08:43.784Z,101152.19
2023-03-11T10:11:28.531Z,101144.91
2023-03-11T10:14:07.699Z,101147.31
2023-03-11T10:16:42.847Z,101147.19
2023-03-11T10:19:22.831Z,101140.69
2023-03-11T10:22:02.238Z,101153.38
2023-03-11T10:24:52.874Z,101154.69
2023-03-11T10:27:24.433Z,101150.41
2023-03-11T10:30:01.728Z,101150.19
2023-03-11T10:32:39.332Z,101142.13
2023-03-11T10:35:17.730Z,101136.72
2023-03-11T10:37:52.658Z,101137.72
2023-03-11T10:40:29.779Z,101142.59
2023-03-11T10:43:00.926Z,101144.09
2023-03-11T10:45:41.388Z,101154.13
2023-03-11T10:48:11.265Z,101141.81
2023-03-11T10:50:47.469Z,101144.72
2023-03-11T10:53:19.796Z,101158.41
2023-03-11T10:55:49.722Z,101153.22
2023-03-11T10:58:20.529Z,101161.31
2023-03-11T11:01:01.042Z,101160.25
2023-03-11T11:03:29.480Z,101162.72
2023-03-11T11:06:03.203Z,101158.13
2023-03-11T11:08:32.932Z,101154.53
2023-03-11T11:11:01.880Z,101157.72
2023-03-11T11:13:32.405Z,101153.72
2023-03-11T11:16:02.509Z,101150.88
2023-03-11T11:18:34.434Z,101162.66
2023-03-11T11:21:05.584Z,101163.69
2023-03-11T11:23:39.902Z,101164.97
2023-03-11T11:26:15.657Z,101162.31
2023-03-11T11:28:43.444Z,101156.13
2023-03-11T11:31:23.277Z,101166.47
2023-03-11T11:33:53.250Z,101154.75
2023-03-11T11:36:25.478Z,101157.28
2023-03-11T11:38:55.652Z,101149.59
2023-03-11T11:41:25.886Z,101152.97
2023-03-11T11:43:56.005Z,101152.09
2023-03-11T11:46:30.306Z,101157.50
2023-03-11T11:49:06.922Z,101152.94
2023-03-11T11:51:40.283Z,101156.59
2023-03-11T11:54:18.135Z,101160.34
2023-03-11T11:56:46.590Z,101155.00
2023-03-11T11:59:18.839Z,101150.94
2023-03-11T12:01:59.332Z,101147.94
2023-03-11T12:04:39.423Z,101131.47
2023-03-11T12:07:23.032Z,101140.38
2023-03-11T12:10:12.997Z,101144.03
2023-03-11T12:12:55.402Z,101147.97
2023-03-11T12:15:28.213Z,101121.13
2023-03-11T12:18:02.357Z,101136.84
2023-03-11T12:20:35.838Z,101143.59
2023-03-11T12:23:18.398Z,101137.63
2023-03-11T12:26:03.362Z,101129.53
2023-03-11T12:28:40.556Z,101128.56
2023-03-11T12:31:11.070Z,101130.19
2023-03-11T12:33:41.243Z,101124.75
2023-03-11T12:36:24.558Z,101130.00
2023-03-11T12:38:54.655Z,101132.66
2023-03-11T12:42:18.904Z,101136.59
2023-03-11T12:44:48.472Z,101135.00
2023-03-11T12:47:27.284Z,101140.56
2023-03-11T12:49:57.402Z,101141.03
2023-03-11T12:52:53.598Z,101145.91
2023-03-11T12:55:37.178Z,101137.88
2023-03-11T12:58:30.175Z,101136.63
2023-03-11T13:01:08.770Z,101133.13
2023-03-11T13:03:48.701Z,101131.53
2023-03-11T13:06:27.910Z,101124.53
2023-03-11T13:08:58.238Z,101131.22
2023-03-11T13:11:39.138Z,101128.03
2023-03-11T13:14:35.150Z,101124.81
2023-03-11T13:17:26.962Z,101121.59
2023-03-11T13:19:56.633Z,101133.41
2023-03-11T13:23:14.945Z,101129.34
2023-03-11T13:25:43.823Z,101120.84
2023-03-11T13:28:37.191Z,101114.56
2023-03-11T13:31:17.915Z,101119.09
2023-03-11T13:33:53.039Z,101122.81
2023-03-11T13:36:41.339Z,101120.09
2023-03-11T13:39:27.806Z,101113.09
2023-03-11T13:41:56.188Z,101112.47
2023-03-11T13:44:30.420Z,101126.53
2023-03-11T13:47:06.862Z,101124.09
2023-03-11T13:49:41.219Z,101123.28
2023-03-11T13:52:13.830Z,101123.53
2023-03-11T13:54:48.484Z,101119.81
2023-03-11T13:57:27.865Z,101124.72
2023-03-11T13:59:57.442Z,101123.41
2023-03-11T14:02:28.401Z,101126.47
2023-03-11T14:05:03.654Z,101132.84
2023-03-11T14:07:34.394Z,101132.78
2023-03-11T14:10:23.955Z,101132.75
2023-03-11T14:12:52.158Z,101138.78
2023-03-11T14:15:24.301Z,101133.47
2023-03-11T14:17:54.785Z,101140.25
2023-03-11T14:20:26.255Z,101138.41
2023-03-11T14:22:55.973Z,101142.09
2023-03-11T14:25:26.368Z,101148.00
2023-03-11T14:27:56.696Z,101145.91
2023-03-11T14:30:27.644Z,101148.38
2023-03-11T14:33:02.525Z,101149.22
2023-03-11T14:35:33.906Z,101155.13
2023-03-11T14:38:02.326Z,101145.91
2023-03-11T14:40:32.431Z,101145.81
2023-03-11T14:43:03.109Z,101138.88
2023-03-11T14:45:33.615Z,101143.56
2023-03-11T14:48:08.274Z,101134.72
2023-03-11T14:50:36.655Z,101136.66
2023-03-11T14:53:10.025Z,101143.63
2023-03-11T14:55:41.128Z,101138.09
2023-03-11T14:58:16.915Z,101136.72
2023-03-11T15:00:50.794Z,101126.97
2023-03-11T15:03:23.615Z,101133.63
2023-03-11T15:05:54.883Z,101141.75
2023-03-11T15:08:24.634Z,101136.34
2023-03-11T15:11:06.536Z,101136.88
2023-03-11T15:13:34.898Z,101138.69
2023-03-11T15:16:04.635Z,101143.13
2023-03-11T15:18:37.531Z,101136.88
2023-03-11T15:21:12.655Z,101139.66
2023-03-11T15:23:40.940Z,101147.69
2023-03-11T15:26:20.392Z,101141.66
2023-03-11T15:28:54.842Z,101135.69
2023-03-11T15:31:31.576Z,101132.63
2023-03-11T15:34:27.433Z,101132.13
2023-03-11T15:37:17.864Z,101129.63
2023-03-11T15:39:47.760Z,101135.81
2023-03-11T15:42:20.050Z,101130.28
2023-03-11T15:45:04.432Z,101125.13
2023-03-11T15:47:32.597Z,101126.19
2023-03-11T15:50:23.509Z,101132.69
2023-03-11T15:52:52.779Z,101128.50
2023-03-11T15:55:20.676Z,101125.03
2023-03-11T15:57:49.700Z,101131.44
2023-03-11T16:00:21.044Z,101127.03
2023-03-11T16:02:49.895Z,101133.53
2023-03-11T16:05:21.314Z,101122.19
2023-03-11T16:07:49.180Z,101130.41
2023-03-11T16:10:19.259Z,101119.84
2023-03-11T16:12:47.147Z,101127.34
2023-03-11T16:15:24.888Z,101132.63
2023-03-11T16:17:53.879Z,101131.97
2023-03-11T16:20:24.545Z,101125.94
2023-03-11T16:22:54.675Z,101128.13
2023-03-11T16:25:26.393Z,101132.91
2023-03-11T16:27:56.058Z,101134.09
2023-03-11T16:30:25.219Z,101124.63
2023-03-11T16:32:53.087Z,101130.03
2023-03-11T16:35:21.193Z,101126.44
2023-03-11T16:37:51.016Z,101124.97
2023-03-11T16:40:21.684Z,101126.91
2023-03-11T16:42:49.733Z,101126.06
2023-03-11T16:45:19.328Z,101120.00
2023-03-11T16:47:47.184Z,101127.34
2023-03-11T16:50:15.099Z,101121.69
2023-03-11T16:52:42.996Z,101131.72
2023-03-11T16:55:12.313Z,101127.63
2023-03-11T16:57:40.183Z,101137.78
2023-03-11T17:00:10.970Z,101120.31
2023-03-11T17:02:39.640Z,101117.72
2023-03-11T17:05:09.185Z,101115.59
2023-03-11T17:07:39.590Z,101117.00
2023-03-11T17:10:08.421Z,101124.59
2023-03-11T17:12:38.069Z,101121.13
2023-03-11T17:15:07.851Z,101130.19
2023-03-11T17:17:35.639Z,101119.50
2023-03-11T17:20:04.103Z,101125.88
2023-03-11T17:22:32.523Z,101122.53
2023-03-11T17:25:00.274Z,101125.53
2023-03-11T17:27:32.183Z,101132.16
2023-03-11T17:30:01.874Z,101135.06
2023-03-11T17:32:29.685Z,101135.41
2023-03-11T17:34:57.590Z,101140.03
2023-03-11T17:37:25.761Z,101126.00
2023-03-11T17:39:54.009Z,101141.53
2023-03-11T17:42:21.816Z,101138.16
2023-03-11T17:44:52.073Z,101148.41
2023-03-11T17:47:21.931Z,101148.50
2023-03-11T17:49:50.316Z,101148.72
2023-03-11T17:52:18.098Z,101155.22
2023-03-11T17:54:46.304Z,101149.94
2023-03-11T17:57:14.173Z,101142.03
2023-03-11T17:59:41.892Z,101144.94
2023-03-11T18:02:14.231Z,101147.00
2023-03-11T18:04:45.979Z,101145.34
2023-03-11T18:07:14.191Z,101166.06
2023-03-11T18:09:41.947Z,101172.66
2023-03-11T18:12:10.013Z,101171.34
2023-03-11T18:14:37.819Z,101168.41
2023-03-11T18:17:05.943Z,101179.69
2023-03-11T18:19:33.777Z,101185.47
2023-03-11T18:22:02.915Z,101182.44
2023-03-11T18:24:30.708Z,101183.72
2023-03-11T18:26:58.481Z,101184.41
2023-03-11T18:29:26.212Z,101177.91
2023-03-11T18:31:53.965Z,101181.56
2023-03-11T18:34:22.263Z,101181.75
2023-03-11T18:36:50.199Z,101180.22
2023-03-11T18:39:20.129Z,101179.78
2023-03-11T18:41:47.939Z,101184.56
2023-03-11T18:44:16.171Z,101174.88
2023-03-11T18:46:46.970Z,101191.13
2023-03-11T18:49:14.976Z,101191.03
2023-03-11T18:51:42.744Z,101196.41
2023-03-11T18:54:11.570Z,101187.78
2023-03-11T18:56:40.736Z,101191.41
2023-03-11T18:59:10.600Z,101203.25
2023-03-11T19:01:38.560Z,101200.78
2023-03-11T19:04:09.994Z,101194.81
2023-03-11T19:06:38.202Z,101193.38
2023-03-11T19:09:06.821Z,101195.38
2023-03-11T19:11:34.686Z,101193.84
2023-03-11T19:14:08.971Z,101193.25
2023-03-11T19:16:36.747Z,101195.19
2023-03-11T19:19:04.554Z,101189.25
2023-03-11T19:21:32.377Z,101185.88
2023-03-11T19:24:00.381Z,101198.53
2023-03-11T19:26:43.702Z,101191.63
2023-03-11T19:29:14.784Z,101191.81
2023-03-11T19:31:43.469Z,101193.72
2023-03-11T19:34:11.423Z,101185.84
2023-03-11T19:36:39.506Z,101186.22
2023-03-11T19:39:07.852Z,101184.66
2023-03-11T19:41:35.673Z,101185.53
2023-03-11T19:44:04.310Z,101177.91
2023-03-11T19:46:34.761Z,101185.97
2023-03-11T19:49:11.615Z,101181.59
2023-03-11T19:51:49.493Z,101179.84
2023-03-11T19:54:18.609Z,101175.53
2023-03-11T19:56:46.690Z,101174.84
2023-03-11T19:59:14.694Z,101185.50
2023-03-11T20:01:43.854Z,101187.34
2023-03-11T20:04:11.821Z,101198.94
2023-03-11T20:06:39.701Z,101185.66
2023-03-11T20:09:07.893Z,101183.09
2023-03-11T20:11:39.193Z,101181.44
2023-03-11T20:14:07.360Z,101182.50
2023-03-11T20:16:36.396Z,101183.66
2023-03-11T20:19:05.660Z,101182.09
2023-03-11T20:21:33.485Z,101173.34
2023-03-11T20:24:01.260Z,101181.50
2023-03-11T20:26:29.055Z,101184.38
2023-03-11T20:28:57.239Z,101184.66
2023-03-11T20:31:26.823Z,101174.31
2023-03-11T20:33:56.131Z,101183.00
2023-03-11T20:36:27.138Z,101184.13
2023-03-11T20:38:56.475Z,101177.31
2023-03-11T20:41:25.973Z,101181.03
2023-03-11T20:43:55.056Z,101177.56
2023-03-11T20:46:23.562Z,101174.97
2023-03-11T20:48:51.956Z,101183.09
2023-03-11T20:51:21.380Z,101177.72
2023-03-11T20:53:50.589Z,101171.59
2023-03-11T20:56:20.778Z,101174.28
2023-03-11T20:58:50.935Z,101176.09
2023-03-11T21:01:21.278Z,101175.25
2023-03-11T21:03:49.843Z,101175.41
2023-03-11T21:06:20.129Z,101170.91
2023-03-11T21:08:48.536Z,101169.28
2023-03-11T21:11:18.880Z,101163.13
2023-03-11T21:13:46.764Z,101173.75
2023-03-11T21:16:14.932Z,101179.31
2023-03-11T21:18:43.767Z,101171.34
2023-03-11T21:21:12.617Z,101176.91
2023-03-11T21:23:41.172Z,101166.16
2023-03-11T21:26:09.548Z,101165.28
2023-03-11T21:28:40.127Z,101159.06
2023-03-11T21:31:10.897Z,101167.22
2023-03-11T21:33:40.039Z,101158.25
2023-03-11T21:36:09.092Z,101166.41
2023-03-11T21:38:37.888Z,101166.41
2023-03-11T21:41:09.021Z,101158.47
2023-03-11T21:43:39.313Z,101155.94
2023-03-11T21:46:08.131Z,101156.03
2023-03-11T21:48:36.117Z,101168.59
2023-03-11T21:51:04.264Z,101169.44
2023-03-11T21:53:32.739Z,101155.25
2023-03-11T21:56:01.388Z,101155.34
2023-03-11T21:58:31.106Z,101144.09
2023-03-11T22:01:00.942Z,101142.28
2023-03-11T22:03:29.165Z,101144.09
2023-03-11T22:05:58.792Z,101149.28
2023-03-11T22:08:27.071Z,101138.63
2023-03-11T22:10:56.692Z,101144.59
2023-03-11T22:13:25.322Z,101135.97
2023-03-11T22:15:53.628Z,101139.50
2023-03-11T22:18:23.000Z,101144.78
2023-03-11T22:20:50.851Z,101144.69
2023-03-11T22:23:18.715Z,101133.06
2023-03-11T22:25:46.513Z,101140.28
2023-03-11T22:28:14.771Z,101135.84
2023-03-11T22:30:42.791Z,101125.31
2023-03-11T22:33:10.550Z,101126.94
2023-03-11T22:35:39.752Z,101126.00
2023-03-11T22:38:07.698Z,101125.22
2023-03-11T22:40:35.919Z,101122.53
2023-03-11T22:43:03.665Z,101119.94
2023-03-11T22:45:31.434Z,101109.38
2023-03-11T22:47:59.213Z,101107.56
2023-03-11T22:50:27.031Z,101106.09
2023-03-11T22:52:56.247Z,101110.56
2023-03-11T22:55:24.023Z,101110.56
2023-03-11T22:57:51.862Z,101111.56
2023-03-11T23:00:22.520Z,101107.50
2023-03-11T23:02:54.031Z,101108.00
2023-03-11T23:05:22.768Z,101114.41
2023-03-11T23:07:51.308Z,101099.25
2023-03-11T23:10:21.603Z,101103.66
2023-03-11T23:12:50.101Z,101103.66
2023-03-11T23:15:19.607Z,101095.81
2023-03-11T23:17:47.669Z,101097.44
2023-03-11T23:20:16.832Z,101100.03
2023-03-11T23:22:45.257Z,101092.94
2023-03-11T23:25:15.802Z,101085.81
2023-03-11T23:27:46.566Z,101080.66
2023-03-11T23:30:16.484Z,101088.72
2023-03-11T23:32:45.107Z,101087.75
2023-03-11T23:35:13.781Z,101091.13
2023-03-11T23:37:41.819Z,101087.56
2023-03-11T23:40:11.445Z,101083.16
2023-03-11T23:42:39.315Z,101085.06
2023-03-11T23:45:10.068Z,101084.09
2023-03-11T23:47:37.979Z,101077.88
2023-03-11T23:50:06.721Z,101071.66
2023-03-11T23:52:34.861Z,101072.66
2023-03-11T23:55:02.990Z,101065.66
2023-03-11T23:57:30.838Z,101061.09
2023-03-11T23:59:58.855Z,101054.09
